ADDS METAR Data INFO
IDs: Format: Raw Decoded Include TAF

Data at: 2052 UTC 19 Jul 2018

KMCB 191953Z AUTO VRB05KT 10SM FEW040 SCT049 34/23 A2992 RMK AO2 SLP125 T03440228 TSNO
KMCB 191853Z AUTO 28007KT 10SM FEW040 34/22 A2993 RMK AO2 SLP129 T03390222 TSNO
KMCB 191753Z AUTO VRB04KT 10SM FEW032 33/23 A2995 RMK AO2 SLP134 6//// T03330233 10333 20239 58010 TSNO
KMCB 191653Z AUTO 29006KT 10SM FEW023 32/24 A2996 RMK AO2 SLP139 T03220239 TSNO
KMCB 191553Z AUTO 31007KT 10SM CLR 31/24 A2997 RMK AO2 SLP142 T03060244 TSNO
KMCB 191453Z AUTO 30009KT 10SM CLR 29/24 A2998 RMK AO2 SLP145 6//// T02890244 50001 TSNO
KMCB 191353Z AUTO 28003KT 10SM FEW003 26/24 A2998 RMK AO2 SLP146 T02610239 TSNO
KMCB 191253Z AUTO 00000KT 5SM BR FEW002 FEW110 24/23 A2998 RMK AO2 SLP146 T02440228 TSNO
KMCB 191217Z AUTO 00000KT 5SM BR SCT003 BKN120 24/22 A2998 RMK AO2 T02390222 TSNO $
KMCB 191153Z AUTO 00000KT 4SM BR BKN002 24/22 A2998 RMK AO2 CIG 002V006 SLP145 7//// T02390222 10239 20228 51013 TSNO $
KMCB 191059Z AUTO 00000KT 3SM BR OVC002 23/22 A2996 RMK AO2 T02330222 TSNO $
KMCB 191053Z AUTO 00000KT 1 3/4SM BR OVC002 23/22 A2996 RMK AO2 SLP140 T02330222 TSNO $
KMCB 191002Z AUTO 17003KT 1 3/4SM BR OVC002 23/22 A2996 RMK AO2 T02330222 TSNO $
KMCB 190953Z AUTO 00000KT 4SM BR OVC002 23/22 A2996 RMK AO2 SLP139 T02330222 TSNO $
KMCB 190915Z AUTO 00000KT 6SM BR BKN003 23/22 A2994 RMK AO2 T02330217 TSNO $
KMCB 190903Z AUTO 00000KT 7SM SCT003 23/22 A2994 RMK AO2 T02330217 TSNO $
KMCB 190853Z AUTO 00000KT 8SM CLR 23/22 A2994 RMK AO2 SLP131 T02330217 53000 TSNO $
KMCB 190753Z AUTO 00000KT 10SM CLR 23/22 A2993 RMK AO2 SLP127 T02330217 TSNO $
KMCB 190653Z AUTO 00000KT 10SM CLR 23/22 A2993 RMK AO2 SLP129 T02330217 TSNO $
KMCB 190553Z AUTO 00000KT 10SM CLR 23/22 A2994 RMK AO2 SLP131 6//// T02330217 10244 20233 403330233 56011 TSNO $
KMCB 190453Z AUTO 27004KT 10SM CLR 23/22 A2994 RMK AO2 SLP133 T02330217 TSNO $
KMCB 190353Z AUTO 00000KT 10SM CLR 23/22 A2995 RMK AO2 SLP137 T02330222 TSNO $
KMCB 190331Z AUTO 00000KT 10SM SCT004 23/22 A2996 RMK AO2 T02330222 TSNO $
KMCB 190318Z AUTO 00000KT 10SM BKN004 24/22 A2996 RMK AO2 T02390222 TSNO $
KMCB 190305Z AUTO 15003KT 10SM FEW003 24/22 A2997 RMK AO2 T02390222 TSNO $
KMCB 190253Z AUTO 00000KT 10SM CLR 24/22 A2997 RMK AO2 SLP141 6//// T02390222 51001 TSNO $
KMCB 190153Z AUTO 18005KT 10SM FEW004 24/22 A2997 RMK AO2 SLP141 T02390222 TSNO $
KMCB 190129Z AUTO 16005KT 10SM FEW004 24/22 A2997 RMK AO2 T02390222 TSNO $
KMCB 190053Z AUTO 00000KT 10SM FEW110 24/23 A2997 RMK AO2 SLP142 T02440228 TSNO $
KMCB 182353Z AUTO 16004KT 10SM FEW034 24/23 A2996 RMK AO2 SLP141 6//// T02440228 10333 20244 50010 TSNO PNO $
KMCB 182332Z AUTO 16004KT 10SM SCT024 BKN031 BKN039 24/23 A2997 RMK AO2 T02440228 TSNO PNO $
KMCB 182321Z AUTO 14005KT 10SM BKN024 BKN031 OVC070 24/23 A2997 RMK AO2 T02440228 TSNO PNO $
KMCB 182253Z AUTO 00000KT 10SM BKN070 BKN100 BKN120 25/23 A2997 RMK AO2 RAE2154 SLP143 T02500228 TSNO PNO $
KMCB 182153Z AUTO 00000KT 10SM -RA SCT100 BKN120 25/23 A2995 RMK AO2 RAB02 SLP136 T02500228 TSNO PNO $
KMCB 182121Z AUTO 30005KT 3SM -RA BR BKN041 BKN050 OVC090 25/23 A2995 RMK AO2 RAB02 T02500233 TSNO PNO $
KMCB 182109Z AUTO 32015G23KT 1 3/4SM +RA BR FEW029 BKN043 OVC050 25/23 A2995 RMK AO2 RAB02 P0000 T02500233 TSNO
KMCB 182053Z AUTO 32016G23KT 10SM BKN039 BKN048 BKN055 28/21 A2993 RMK AO2 PK WND 32026/2042 RAB06E16 SLP130 P0000 60000 T02830211 56021 TSNO
KMCB 181953Z AUTO 26006G15KT 10SM SCT039 SCT050 BKN065 33/23 A2994 RMK AO2 SLP132 T03280233 TSNO
KMCB 181853Z AUTO 28007KT 10SM FEW025 FEW070 32/24 A2997 RMK AO2 SLP144 T03170239 TSNO
KMCB 181753Z AUTO 27006KT 10SM FEW023 31/24 A3000 RMK AO2 SLP151 T03110244 10311 20256 58012 TSNO
KMCB 181653Z AUTO 28008KT 10SM CLR 31/23 A3001 RMK AO2 SLP155 T03060228 TSNO
KMCB 181553Z AUTO 27007KT 10SM SCT070 SCT090 29/21 A3002 RMK AO2 SLP161 T02890211 TSNO
KMCB 181453Z AUTO 28010KT 10SM FEW100 28/23 A3003 RMK AO2 SLP164 T02830233 50004 TSNO
KMCB 181353Z AUTO 28006KT 10SM SCT065 OVC080 27/23 A3004 RMK AO2 SLP165 T02670233 TSNO
KMCB 181253Z AUTO 28005KT 10SM SCT090 BKN120 26/23 A3002 RMK AO2 SLP160 T02560233 TSNO
KMCB 181210Z AUTO 29004KT 9SM SCT006 BKN070 OVC095 26/24 A3002 RMK AO2 T02560239 TSNO
KMCB 181153Z AUTO 30004KT 9SM OVC065 25/23 A3002 RMK AO2 SLP159 70005 T02500233 10250 20233 52004 TSNO
KMCB 181053Z AUTO 00000KT 8SM OVC065 24/23 A3002 RMK AO2 SLP159 T02440228 TSNO
KMCB 180953Z AUTO 00000KT 8SM OVC100 24/23 A3001 RMK AO2 SLP155 T02440228 TSNO
KMCB 180853Z AUTO 00000KT 7SM BKN070 OVC090 24/23 A3001 RMK AO2 SLP155 T02440228 53001 TSNO